createdAt,value
2024-01-08T00:01:36.974Z,6.80
2024-01-08T00:04:39.560Z,5.33
2024-01-08T00:07:41.362Z,8.57
2024-01-08T00:10:43.202Z,6.00
2024-01-08T00:13:45.055Z,5.70
2024-01-08T00:16:47.489Z,5.30
2024-01-08T00:19:49.340Z,6.77
2024-01-08T00:22:51.191Z,4.67
2024-01-08T00:25:53.033Z,5.90
2024-01-08T00:28:54.912Z,5.50
2024-01-08T00:31:56.755Z,5.90
2024-01-08T00:34:59.296Z,5.10
2024-01-08T00:38:01.134Z,5.27
2024-01-08T00:41:03.094Z,5.60
2024-01-08T00:44:05.155Z,6.47
2024-01-08T00:47:07.139Z,5.87
2024-01-08T00:50:11.612Z,5.27
2024-01-08T00:53:13.516Z,5.77
2024-01-08T00:56:16.810Z,5.80
2024-01-08T00:59:18.693Z,4.23
2024-01-08T01:02:20.644Z,6.07
2024-01-08T01:05:22.677Z,4.10
2024-01-08T01:08:24.591Z,5.17
2024-01-08T01:11:26.502Z,4.43
2024-01-08T01:14:28.469Z,4.20
2024-01-08T01:17:30.528Z,5.17
2024-01-08T01:20:32.548Z,4.43
2024-01-08T01:23:34.749Z,5.33
2024-01-08T01:26:36.630Z,4.83
2024-01-08T01:29:38.663Z,4.57
2024-01-08T01:32:40.603Z,5.63
2024-01-08T01:35:42.504Z,4.80
2024-01-08T01:38:44.545Z,5.10
2024-01-08T01:41:46.315Z,5.47
2024-01-08T01:44:48.089Z,4.20
2024-01-08T01:47:51.645Z,4.90
2024-01-08T01:50:53.888Z,5.90
2024-01-08T01:53:58.709Z,5.80
2024-01-08T01:57:03.082Z,5.20
2024-01-08T02:00:06.032Z,6.80
2024-01-08T02:03:09.051Z,7.17
2024-01-08T02:06:12.517Z,7.00
2024-01-08T02:09:17.995Z,6.70
2024-01-08T02:12:22.518Z,7.17
2024-01-08T02:15:24.437Z,8.00
2024-01-08T02:18:26.475Z,8.60
2024-01-08T02:21:28.343Z,8.37
2024-01-08T02:24:30.572Z,9.27
2024-01-08T02:27:32.359Z,9.10
2024-01-08T02:30:34.176Z,11.73
2024-01-08T02:33:36.201Z,10.90
2024-01-08T02:36:38.029Z,9.47
2024-01-08T02:39:39.855Z,8.73
2024-01-08T02:42:42.028Z,9.47
2024-01-08T02:45:43.956Z,9.97
2024-01-08T02:48:45.852Z,10.17
2024-01-08T02:51:47.825Z,8.63
2024-01-08T02:54:49.588Z,8.47
2024-01-08T02:57:51.334Z,9.33
2024-01-08T03:00:53.133Z,9.30
2024-01-08T03:03:55.111Z,9.03
2024-01-08T03:06:57.139Z,8.70
2024-01-08T03:09:59.634Z,10.13
2024-01-08T03:13:01.532Z,8.97
2024-01-08T03:16:03.325Z,10.03
2024-01-08T03:19:06.582Z,7.03
2024-01-08T03:22:08.671Z,6.87
2024-01-08T03:25:10.624Z,6.47
2024-01-08T03:28:12.818Z,7.57
2024-01-08T03:31:14.817Z,6.70
2024-01-08T03:34:16.810Z,6.67
2024-01-08T03:37:18.625Z,6.07
2024-01-08T03:40:20.430Z,6.67
2024-01-08T03:43:22.233Z,6.13
2024-01-08T03:46:24.012Z,6.63
2024-01-08T03:49:25.771Z,6.60
2024-01-08T03:52:27.565Z,7.77
2024-01-08T03:55:31.384Z,17.37
2024-01-08T03:58:33.124Z,5.27
2024-01-08T04:01:35.038Z,6.40
2024-01-08T04:04:36.900Z,7.10
2024-01-08T04:07:39.248Z,9.07
2024-01-08T04:10:41.153Z,5.20
2024-01-08T04:13:42.981Z,7.07
2024-01-08T04:16:44.802Z,5.27
2024-01-08T04:19:46.642Z,6.57
2024-01-08T04:22:51.152Z,5.87
2024-01-08T04:25:53.067Z,6.67
2024-01-08T04:28:55.013Z,6.63
2024-01-08T04:32:00.614Z,7.90
2024-01-08T04:35:04.022Z,6.60
2024-01-08T04:38:05.960Z,6.73
2024-01-08T04:41:08.842Z,7.17
2024-01-08T04:44:11.226Z,6.17
2024-01-08T04:47:13.356Z,7.43
2024-01-08T04:50:15.325Z,7.03
2024-01-08T04:53:17.168Z,7.80
2024-01-08T04:56:25.876Z,6.93
2024-01-08T04:59:27.855Z,6.60
2024-01-08T05:02:30.048Z,10.37
2024-01-08T05:05:31.917Z,8.20
2024-01-08T05:08:34.169Z,6.93
2024-01-08T05:11:36.458Z,7.87
2024-01-08T05:14:38.514Z,9.13
2024-01-08T05:17:40.731Z,9.67
2024-01-08T05:20:42.730Z,9.03
2024-01-08T05:23:44.723Z,12.10
2024-01-08T05:26:46.909Z,12.80
2024-01-08T05:29:48.969Z,10.77
2024-01-08T05:32:51.785Z,10.70
2024-01-08T05:35:53.791Z,14.67
2024-01-08T05:38:55.664Z,11.90
2024-01-08T05:41:57.513Z,12.90
2024-01-08T05:44:59.313Z,11.50
2024-01-08T05:48:01.486Z,8.23
2024-01-08T05:51:11.076Z,13.37
2024-01-08T05:54:12.893Z,8.83
2024-01-08T05:57:14.714Z,10.53
2024-01-08T06:00:17.714Z,9.10
2024-01-08T06:03:19.641Z,11.33
2024-01-08T06:06:22.111Z,15.17
2024-01-08T06:09:24.533Z,10.50
2024-01-08T06:12:26.667Z,11.43
2024-01-08T06:15:28.507Z,11.80
2024-01-08T06:18:34.359Z,8.93
2024-01-08T06:21:36.303Z,10.37
2024-01-08T06:24:38.060Z,9.50
2024-01-08T06:27:39.894Z,10.77
2024-01-08T06:30:42.305Z,10.43
2024-01-08T06:33:44.433Z,10.57
2024-01-08T06:36:46.293Z,12.50
2024-01-08T06:39:48.106Z,10.50
2024-01-08T06:43:00.131Z,13.67
2024-01-08T06:46:03.642Z,10.27
2024-01-08T06:49:05.872Z,13.17
2024-01-08T06:52:07.676Z,10.30
2024-01-08T06:55:10.470Z,12.80
2024-01-08T06:58:12.406Z,12.27
2024-01-08T07:01:17.074Z,9.77
2024-01-08T07:04:19.423Z,15.20
2024-01-08T07:07:21.314Z,12.40
2024-01-08T07:13:27.058Z,12.63
2024-01-08T07:16:29.925Z,12.57
2024-01-08T07:19:31.788Z,11.67
2024-01-08T07:22:33.987Z,15.87
2024-01-08T07:25:37.204Z,19.33
2024-01-08T07:28:39.081Z,18.03
2024-01-08T07:31:40.889Z,12.43
2024-01-08T07:34:43.172Z,14.87
2024-01-08T07:37:44.995Z,14.17
2024-01-08T07:40:47.195Z,13.77
2024-01-08T07:43:48.979Z,16.60
2024-01-08T07:46:50.784Z,14.37
2024-01-08T07:49:52.834Z,13.00
2024-01-08T07:52:55.249Z,15.43
2024-01-08T07:55:57.160Z,13.53
2024-01-08T07:58:58.954Z,17.20
2024-01-08T08:02:00.975Z,14.10
2024-01-08T08:05:03.073Z,14.37
2024-01-08T08:08:05.434Z,14.57
2024-01-08T08:11:08.012Z,16.40
2024-01-08T08:14:10.310Z,16.87
2024-01-08T08:17:12.233Z,16.80
2024-01-08T08:20:14.308Z,13.63
2024-01-08T08:23:16.283Z,16.67
2024-01-08T08:26:20.180Z,16.27
2024-01-08T08:29:22.378Z,15.13
2024-01-08T08:32:24.569Z,16.43
2024-01-08T08:35:27.392Z,15.10
2024-01-08T08:38:29.466Z,16.70
2024-01-08T08:41:31.385Z,14.87
2024-01-08T08:44:33.886Z,15.47
2024-01-08T08:47:35.801Z,15.57
2024-01-08T08:50:37.719Z,17.53
2024-01-08T08:53:39.785Z,16.23
2024-01-08T08:56:42.219Z,16.93
2024-01-08T08:59:48.093Z,18.97
2024-01-08T09:02:52.098Z,18.47
2024-01-08T09:05:54.221Z,18.57
2024-01-08T09:08:56.635Z,20.10
2024-01-08T09:11:58.434Z,21.53
2024-01-08T09:15:00.324Z,17.17
2024-01-08T09:18:02.786Z,17.07
2024-01-08T09:21:04.944Z,19.90
2024-01-08T09:24:07.652Z,17.90
2024-01-08T09:27:09.576Z,20.97
2024-01-08T09:30:11.783Z,18.27
2024-01-08T09:33:13.777Z,17.10
2024-01-08T09:36:16.255Z,18.67
2024-01-08T09:39:18.272Z,16.97
2024-01-08T09:42:22.145Z,18.00
2024-01-08T09:45:26.670Z,20.17
2024-01-08T09:48:28.887Z,17.27
2024-01-08T09:51:31.637Z,17.17
2024-01-08T09:54:34.646Z,19.83
2024-01-08T09:57:37.165Z,16.43
2024-01-08T10:00:44.333Z,15.77
2024-01-08T10:03:48.240Z,18.87
2024-01-08T10:07:08.698Z,18.53
2024-01-08T10:10:11.299Z,16.87
2024-01-08T10:13:13.590Z,18.23
2024-01-08T10:16:16.287Z,19.00
2024-01-08T10:19:19.549Z,17.77
2024-01-08T10:22:25.744Z,22.37
2024-01-08T10:25:28.285Z,22.57
2024-01-08T10:28:38.729Z,20.97
2024-01-08T10:31:40.610Z,17.93
2024-01-08T10:34:43.415Z,18.00
2024-01-08T10:37:48.570Z,16.73
2024-01-08T10:40:50.417Z,17.60
2024-01-08T10:43:52.345Z,20.70
2024-01-08T10:46:58.359Z,19.17
2024-01-08T10:50:04.428Z,19.77
2024-01-08T10:53:14.696Z,18.37
2024-01-08T10:56:21.382Z,16.17
2024-01-08T10:59:25.159Z,15.37
2024-01-08T11:02:27.727Z,17.20
2024-01-08T11:05:32.676Z,18.20
2024-01-08T11:08:34.865Z,18.10
2024-01-08T11:11:39.097Z,17.53
2024-01-08T11:14:41.706Z,18.03
2024-01-08T11:17:59.288Z,17.47
2024-01-08T11:21:02.888Z,16.07
2024-01-08T11:24:05.076Z,18.00
2024-01-08T11:27:06.937Z,17.97
2024-01-08T11:30:09.293Z,17.27
2024-01-08T11:33:31.648Z,17.10
2024-01-08T11:36:49.276Z,17.37
2024-01-08T11:39:51.902Z,22.00
2024-01-08T11:42:55.038Z,19.40
2024-01-08T11:45:56.998Z,16.93
2024-01-08T11:48:58.988Z,18.80
2024-01-08T11:52:06.538Z,26.10
2024-01-08T11:55:09.480Z,20.97
2024-01-08T11:58:11.606Z,21.37
2024-01-08T12:01:19.937Z,16.00
2024-01-08T12:04:21.688Z,17.97
2024-01-08T12:07:28.266Z,15.20
2024-01-08T12:10:31.562Z,19.27
2024-01-08T12:13:33.376Z,15.27
2024-01-08T12:16:35.306Z,17.27
2024-01-08T12:19:53.810Z,17.53
2024-01-08T12:22:56.368Z,17.37
2024-01-08T12:25:58.381Z,18.80
2024-01-08T12:29:02.237Z,17.57
2024-01-08T12:32:05.054Z,16.87
2024-01-08T12:35:13.524Z,14.93
2024-01-08T12:38:16.974Z,17.77
2024-01-08T12:41:18.940Z,19.57
2024-01-08T12:44:20.802Z,18.73
2024-01-08T12:47:24.020Z,17.80
2024-01-08T12:50:26.075Z,19.63
2024-01-08T12:53:28.441Z,19.90
2024-01-08T12:56:30.480Z,18.53
2024-01-08T12:59:37.898Z,17.17
2024-01-08T13:02:39.742Z,18.63
2024-01-08T13:05:41.819Z,16.87
2024-01-08T13:08:43.682Z,19.10
2024-01-08T13:11:46.411Z,19.23
2024-01-08T13:14:48.363Z,17.47
2024-01-08T13:17:50.392Z,19.47
2024-01-08T13:20:52.518Z,16.10
2024-01-08T13:23:54.592Z,19.07
2024-01-08T13:26:56.462Z,19.13
2024-01-08T13:29:58.288Z,20.33
2024-01-08T13:33:00.263Z,18.90
2024-01-08T13:36:03.705Z,16.07
2024-01-08T13:39:06.333Z,16.30
2024-01-08T13:42:10.632Z,17.87
2024-01-08T13:45:12.530Z,15.23
2024-01-08T13:48:14.491Z,16.90
2024-01-08T13:51:18.266Z,15.23
2024-01-08T13:54:20.137Z,19.07
2024-01-08T13:57:21.915Z,17.30
2024-01-08T14:00:23.802Z,18.13
2024-01-08T14:03:25.634Z,17.87
2024-01-08T14:06:27.634Z,19.53
2024-01-08T14:09:29.668Z,16.73
2024-01-08T14:12:31.747Z,17.27
2024-01-08T14:15:33.677Z,16.77
2024-01-08T14:18:35.678Z,18.57
2024-01-08T14:21:37.597Z,19.03
2024-01-08T14:24:39.416Z,19.03
2024-01-08T14:27:41.248Z,18.93
2024-01-08T14:30:43.200Z,18.93
2024-01-08T14:33:45.838Z,21.80
2024-01-08T14:36:47.759Z,20.33
2024-01-08T14:39:49.810Z,21.20
2024-01-08T14:42:51.623Z,21.57
2024-01-08T14:45:54.500Z,20.30
2024-01-08T14:48:56.759Z,21.60
2024-01-08T14:51:59.002Z,22.63
2024-01-08T14:55:00.809Z,21.40
2024-01-08T14:58:02.671Z,20.77
2024-01-08T15:01:06.608Z,23.47
2024-01-08T15:04:08.769Z,23.03
2024-01-08T15:07:10.949Z,22.17
2024-01-08T15:10:13.646Z,19.87
2024-01-08T15:13:15.644Z,18.90
2024-01-08T15:16:17.423Z,19.60
2024-01-08T15:19:19.297Z,21.70
2024-01-08T15:22:21.636Z,23.70
2024-01-08T15:25:23.728Z,23.60
2024-01-08T15:28:25.589Z,19.67
2024-01-08T15:31:27.549Z,19.30
2024-01-08T15:34:31.653Z,22.83
2024-01-08T15:37:33.656Z,22.77
2024-01-08T15:40:35.463Z,19.63
2024-01-08T15:43:37.584Z,20.07
2024-01-08T15:46:41.928Z,19.57
2024-01-08T15:49:44.085Z,22.30
2024-01-08T15:52:46.025Z,23.60
2024-01-08T15:55:47.913Z,28.53
2024-01-08T15:58:51.019Z,28.50
2024-01-08T16:01:52.910Z,26.73
2024-01-08T16:04:54.831Z,23.33
2024-01-08T16:07:56.664Z,27.53
2024-01-08T16:10:58.580Z,29.40
2024-01-08T16:14:02.477Z,33.37
2024-01-08T16:17:04.731Z,36.13
2024-01-08T16:20:08.320Z,33.20
2024-01-08T16:23:10.270Z,22.10
2024-01-08T16:26:12.386Z,24.90
2024-01-08T16:29:14.412Z,22.30
2024-01-08T16:32:16.302Z,19.40
2024-01-08T16:35:18.418Z,24.17
2024-01-08T16:38:21.052Z,21.60
2024-01-08T16:41:23.261Z,20.97
2024-01-08T16:44:25.234Z,22.17
2024-01-08T16:47:27.154Z,23.30
2024-01-08T16:50:29.124Z,22.33
2024-01-08T16:53:31.175Z,25.43
2024-01-08T16:56:34.224Z,23.33
2024-01-08T16:59:36.125Z,23.77
2024-01-08T17:02:38.731Z,23.17
2024-01-08T17:05:40.883Z,23.67
2024-01-08T17:08:43.017Z,22.13
2024-01-08T17:11:45.205Z,21.63
2024-01-08T17:14:47.223Z,21.10
2024-01-08T17:17:51.262Z,21.80
2024-01-08T17:20:55.042Z,20.30
2024-01-08T17:23:56.932Z,22.77
2024-01-08T17:26:58.748Z,19.43
2024-01-08T17:30:00.711Z,23.43
2024-01-08T17:33:02.800Z,21.73
2024-01-08T17:36:08.440Z,20.60
2024-01-08T17:39:10.323Z,22.50
2024-01-08T17:42:13.039Z,21.40
2024-01-08T17:45:14.879Z,34.33
2024-01-08T17:48:18.080Z,27.47
2024-01-08T17:51:20.254Z,19.53
2024-01-08T17:54:23.056Z,29.60
2024-01-08T17:57:24.883Z,24.60
2024-01-08T18:00:27.893Z,26.50
2024-01-08T18:03:29.745Z,31.57
2024-01-08T18:06:31.691Z,25.73
2024-01-08T18:09:33.692Z,27.60
2024-01-08T18:12:38.992Z,24.53
2024-01-08T18:15:44.104Z,25.50
2024-01-08T18:18:46.071Z,27.03
2024-01-08T18:21:47.964Z,25.97
2024-01-08T18:24:49.850Z,23.73
2024-01-08T18:27:51.968Z,25.73
2024-01-08T18:30:56.526Z,24.83
2024-01-08T18:34:00.676Z,23.20
2024-01-08T18:37:02.686Z,23.97
2024-01-08T18:40:05.960Z,26.93
2024-01-08T18:43:08.531Z,22.57
2024-01-08T18:46:10.490Z,27.00
2024-01-08T18:49:12.759Z,21.33
2024-01-08T18:52:14.898Z,25.73
2024-01-08T18:55:16.774Z,22.83
2024-01-08T18:58:19.920Z,22.03
2024-01-08T19:01:25.484Z,31.53
2024-01-08T19:04:27.443Z,30.03
2024-01-08T19:07:29.264Z,25.90
2024-01-08T19:10:31.165Z,22.83
2024-01-08T19:13:37.428Z,27.63
2024-01-08T19:16:39.204Z,26.27
2024-01-08T19:19:42.567Z,20.20
2024-01-08T19:22:44.493Z,20.20
2024-01-08T19:25:46.347Z,24.17
2024-01-08T19:28:48.191Z,26.83
2024-01-08T19:31:50.085Z,23.60
2024-01-08T19:34:51.931Z,33.77
2024-01-08T19:37:54.793Z,24.07
2024-01-08T19:40:58.232Z,22.53
2024-01-08T19:44:00.175Z,25.80
2024-01-08T19:47:03.566Z,23.87
2024-01-08T19:50:06.350Z,20.93
2024-01-08T19:53:08.880Z,21.57
2024-01-08T19:56:10.745Z,22.53
2024-01-08T19:59:13.036Z,26.27
2024-01-08T20:02:15.052Z,32.60
2024-01-08T20:05:17.208Z,41.80
2024-01-08T20:08:19.640Z,25.77
2024-01-08T20:11:21.579Z,31.43
2024-01-08T20:14:27.755Z,23.87
2024-01-08T20:17:30.219Z,23.87
2024-01-08T20:20:32.257Z,18.67
2024-01-08T20:23:35.728Z,20.90
2024-01-08T20:26:37.723Z,19.87
2024-01-08T20:29:39.637Z,19.57
2024-01-08T20:32:45.973Z,21.93
2024-01-08T20:35:47.900Z,24.03
2024-01-08T20:38:49.830Z,23.80
2024-01-08T20:41:52.341Z,23.10
2024-01-08T20:44:54.288Z,22.40
2024-01-08T20:47:56.315Z,22.90
2024-01-08T20:50:58.185Z,20.50
2024-01-08T20:54:00.074Z,22.07
2024-01-08T20:57:05.393Z,18.00
2024-01-08T21:00:08.130Z,19.23
2024-01-08T21:03:10.003Z,21.20
2024-01-08T21:06:11.966Z,22.10
2024-01-08T21:09:13.940Z,18.70
2024-01-08T21:12:17.864Z,18.47
2024-01-08T21:15:21.252Z,16.67
2024-01-08T21:18:23.154Z,17.40
2024-01-08T21:21:25.800Z,20.27
2024-01-08T21:24:27.663Z,21.10
2024-01-08T21:27:29.451Z,20.87
2024-01-08T21:30:32.510Z,20.27
2024-01-08T21:33:38.663Z,21.50
2024-01-08T21:36:40.635Z,18.03
2024-01-08T21:39:46.293Z,19.47
2024-01-08T21:42:49.090Z,20.73
2024-01-08T21:45:50.877Z,18.20
2024-01-08T21:48:52.848Z,16.83
2024-01-08T21:51:54.700Z,18.03
2024-01-08T21:54:56.440Z,18.67
2024-01-08T21:57:58.285Z,18.03
2024-01-08T22:01:00.118Z,16.50
2024-01-08T22:04:01.968Z,18.37
2024-01-08T22:07:04.104Z,17.93
2024-01-08T22:10:06.708Z,17.20
2024-01-08T22:13:08.501Z,15.43
2024-01-08T22:16:14.807Z,17.43
2024-01-08T22:19:16.873Z,16.57
2024-01-08T22:22:18.730Z,16.57
2024-01-08T22:25:20.519Z,15.07
2024-01-08T22:28:22.292Z,14.50
2024-01-08T22:31:24.023Z,16.23
2024-01-08T22:34:25.903Z,16.60
2024-01-08T22:37:28.331Z,13.63
2024-01-08T22:40:30.127Z,15.60
2024-01-08T22:43:31.868Z,14.87
2024-01-08T22:46:33.672Z,14.67
2024-01-08T22:49:35.687Z,14.20
2024-01-08T22:52:37.454Z,16.07
2024-01-08T22:55:39.271Z,17.20
2024-01-08T22:58:41.039Z,16.63
2024-01-08T23:01:49.618Z,15.73
2024-01-08T23:04:51.384Z,15.97
2024-01-08T23:07:53.248Z,16.03
2024-01-08T23:10:55.045Z,17.73
2024-01-08T23:13:57.968Z,16.33
2024-01-08T23:16:59.817Z,19.40
2024-01-08T23:20:01.734Z,18.87
2024-01-08T23:23:05.167Z,18.97
2024-01-08T23:26:07.037Z,13.83
2024-01-08T23:29:09.103Z,16.80
2024-01-08T23:32:10.996Z,15.80
2024-01-08T23:35:12.873Z,15.43
2024-01-08T23:38:14.736Z,18.90
2024-01-08T23:41:16.554Z,14.80
2024-01-08T23:44:18.432Z,15.77
2024-01-08T23:47:20.263Z,15.13
2024-01-08T23:50:22.155Z,13.10
2024-01-08T23:53:24.242Z,16.00
2024-01-08T23:56:26.087Z,14.93
2024-01-08T23:59:27.967Z,12.83
